Eastern Hunter — WDE8768 — position and weather

sailwx.info

Track history (hours):
 
Tides and Currents Weather Stations Pressure Air Temp Water Temp Dewpoint Dewpoint Depression Visibility Wind Speed Wind Dir Waves Ship Positions

Eastern Hunter

Owner: Western Hunter LLC, Seattle, WA. More information available from US FCC via Universal Licensing System and Coast Guard Vessel Documentation Center.

Last reported at 2018-Apr-05 08:06 UTC. Time now 2018-Jul-22 19:47 UTC.
Position N 59°07' W 138°50'.
Warning: this ship's position is months out of date.

Length 30 m; draft 4.5 m.

Type: Fishing. MMSI: 367409350.

Date/timePositionNaut miles runAvg speedWind from/ knotsBaromVisibWave heightAir tempDewpointWater temp
2018-Apr-05 08:06N 59°07' W 138°50'110.3
2018-Apr-05 08:00N 59°07' W 138°48'510.2
2018-Apr-05 07:30N 59°04' W 138°40'6 9.9
2018-Apr-05 06:54N 59°01' W 138°31'82 9.0
2018-Apr-04 21:47N 58°14' W 136°22'2 7.3
2018-Apr-04 21:30N 58°14' W 136°18'4 8.5
2018-Apr-04 21:00N 58°14' W 136°10'4 8.3
2018-Apr-04 20:30N 58°15' W 136°03'4 8.6
2018-Apr-04 20:00N 58°16' W 135°55'4 8.0
2018-Apr-04 19:30N 58°18' W 135°48'4 8.6
2018-Apr-04 19:00N 58°16' W 135°40'8 9.4
2018-Apr-04 18:08N 58°12' W 135°27'  
Track history (hours):
 
Tides and Currents Weather Stations Pressure Air Temp Water Temp Dewpoint Dewpoint Depression Visibility Wind Speed Wind Dir Waves Ship Positions

Eastern Hunter

Owner: Western Hunter LLC, Seattle, WA. More information available from US FCC via Universal Licensing System and Coast Guard Vessel Documentation Center.

Last reported at 2018-Apr-05 08:06 UTC. Time now 2018-Jul-22 19:47 UTC.
Position N 59°07' W 138°50'.
Warning: this ship's position is months out of date.

Length 30 m; draft 4.5 m.

Type: Fishing. MMSI: 367409350.

Date/timePositionNaut miles runAvg speedWind from/ knotsBaromVisibWave heightAir tempDewpointWater temp
2018-Apr-05 08:06N 59°07' W 138°50'110.3
2018-Apr-05 08:00N 59°07' W 138°48'510.2
2018-Apr-05 07:30N 59°04' W 138°40'6 9.9
2018-Apr-05 06:54N 59°01' W 138°31'82 9.0
2018-Apr-04 21:47N 58°14' W 136°22'2 7.3
2018-Apr-04 21:30N 58°14' W 136°18'4 8.5
2018-Apr-04 21:00N 58°14' W 136°10'4 8.3
2018-Apr-04 20:30N 58°15' W 136°03'4 8.6
2018-Apr-04 20:00N 58°16' W 135°55'4 8.0
2018-Apr-04 19:30N 58°18' W 135°48'4 8.6
2018-Apr-04 19:00N 58°16' W 135°40'8 9.4
2018-Apr-04 18:08N 58°12' W 135°27'  

Dump ship's entire track history